Time;durP1;ratioP1;P1;durP2;ratioP2;P2;SDS_P1;SDS_P2;PMS_P1;PMS_P2;Temp;Humidity;BMP_temperature;BMP_pressure;BME280_temperature;BME280_humidity;BME280_pressure;Samples;Min_cycle;Max_cycle;Signal;HPM_P1;HPM_P2
2023/07/30 00:01:38;;;;;;;1.73;1.10;;;22.60;72.20;;;;;;5075708;28;20052;-63
2023/07/30 00:04:04;;;;;;;2.13;1.08;;;22.60;72.20;;;;;;5076280;28;20086;-63
2023/07/30 00:06:30;;;;;;;2.08;1.05;;;22.60;72.20;;;;;;5076290;28;20123;-63
2023/07/30 00:08:55;;;;;;;2.25;1.00;;;22.60;72.20;;;;;;5075413;28;20059;-63
2023/07/30 00:11:21;;;;;;;2.05;1.02;;;22.60;72.20;;;;;;5108585;28;20036;-62
2023/07/30 00:13:46;;;;;;;3.05;1.23;;;22.60;72.20;;;;;;5075920;28;20040;-63
2023/07/30 00:16:14;;;;;;;1.52;1.00;;;22.60;72.20;;;;;;5075355;28;20056;-63
2023/07/30 00:18:43;;;;;;;2.67;1.00;;;22.60;72.20;;;;;;5075997;28;20058;-63
2023/07/30 00:21:09;;;;;;;1.80;1.10;;;22.60;72.20;;;;;;5075906;28;20066;-63
2023/07/30 00:23:37;;;;;;;1.67;1.00;;;22.60;72.20;;;;;;5073439;28;20091;-63
2023/07/30 00:26:02;;;;;;;1.80;1.30;;;22.60;72.20;;;;;;5075898;28;20049;-63
2023/07/30 00:28:28;;;;;;;2.80;1.05;;;22.60;72.20;;;;;;5075908;28;20051;-63
2023/07/30 00:30:54;;;;;;;1.52;1.00;;;22.60;72.20;;;;;;5074253;28;20381;-63
2023/07/30 00:33:19;;;;;;;1.70;0.95;;;22.60;72.20;;;;;;5074363;28;20049;-63
2023/07/30 00:35:45;;;;;;;2.75;1.10;;;22.60;72.20;;;;;;5074613;28;20127;-63
2023/07/30 00:38:10;;;;;;;3.03;1.08;;;22.60;72.20;;;;;;5075610;28;20044;-63
2023/07/30 00:40:42;;;;;;;1.77;1.00;;;22.50;72.10;;;;;;5075293;28;20119;-63
2023/07/30 00:43:07;;;;;;;2.22;1.05;;;22.50;72.10;;;;;;5074817;28;20040;-63
2023/07/30 00:45:34;;;;;;;2.65;1.15;;;22.60;72.20;;;;;;5075465;28;20046;-63
2023/07/30 00:47:59;;;;;;;1.98;1.20;;;22.50;72.10;;;;;;5074395;28;20058;-63
2023/07/30 00:50:25;;;;;;;2.70;1.45;;;22.50;72.00;;;;;;5073632;28;20115;-63
2023/07/30 00:52:51;;;;;;;1.58;1.05;;;22.50;72.00;;;;;;5075029;28;20440;-63
2023/07/30 00:55:16;;;;;;;2.35;1.00;;;22.50;72.00;;;;;;5075454;28;20043;-63
2023/07/30 00:57:42;;;;;;;2.78;1.20;;;22.50;72.60;;;;;;5073070;28;20049;-63
2023/07/30 01:00:09;;;;;;;2.33;0.90;;;22.50;72.10;;;;;;5073977;28;20120;-63
2023/07/30 01:02:36;;;;;;;1.60;0.90;;;22.50;72.00;;;;;;5073135;28;20059;-63
2023/07/30 01:05:03;;;;;;;3.22;1.10;;;22.50;72.00;;;;;;5073104;28;20066;-63
2023/07/30 01:07:29;;;;;;;2.13;1.00;;;22.50;72.00;;;;;;5073785;28;20036;-63
2023/07/30 01:09:54;;;;;;;1.85;1.00;;;22.50;72.00;;;;;;5073449;28;20116;-63
2023/07/30 01:12:20;;;;;;;2.22;1.13;;;22.50;72.00;;;;;;5073144;28;20124;-63
2023/07/30 01:14:49;;;;;;;2.03;1.10;;;22.50;72.60;;;;;;5107597;28;20122;-63
2023/07/30 01:17:14;;;;;;;2.20;1.20;;;22.50;72.00;;;;;;5073684;28;20406;-63
2023/07/30 01:19:40;;;;;;;1.83;1.10;;;22.50;72.00;;;;;;5072917;28;20036;-63
2023/07/30 01:22:06;;;;;;;2.40;1.05;;;22.50;72.00;;;;;;5074980;28;20115;-63
2023/07/30 01:24:32;;;;;;;2.83;1.20;;;22.50;72.00;;;;;;5074888;28;20040;-63
2023/07/30 01:27:01;;;;;;;1.65;0.80;;;22.50;72.00;;;;;;5073884;28;20048;-63
2023/07/30 01:29:28;;;;;;;1.63;0.88;;;22.50;72.00;;;;;;5073308;28;20442;-63
2023/07/30 01:31:57;;;;;;;2.13;1.13;;;22.50;72.00;;;;;;5073372;28;20067;-63
2023/07/30 01:34:27;;;;;;;1.98;1.05;;;22.40;71.90;;;;;;5056752;28;20124;-63
2023/07/30 01:36:53;;;;;;;2.15;0.95;;;22.40;71.90;;;;;;5056473;28;20048;-63
2023/07/30 01:39:19;;;;;;;2.28;1.20;;;22.40;71.90;;;;;;5056198;28;20480;-63
2023/07/30 01:41:44;;;;;;;2.45;1.00;;;22.40;71.90;;;;;;5073107;28;20049;-63
2023/07/30 01:44:10;;;;;;;2.80;1.40;;;22.40;71.90;;;;;;5074527;28;20036;-63
2023/07/30 01:46:35;;;;;;;2.63;1.20;;;22.40;71.90;;;;;;5073524;28;20373;-63
2023/07/30 01:49:01;;;;;;;2.22;1.15;;;22.40;71.90;;;;;;5074457;28;20032;-63
2023/07/30 01:51:26;;;;;;;2.38;1.38;;;22.40;71.90;;;;;;5072945;28;20399;-64
2023/07/30 01:53:52;;;;;;;2.45;1.02;;;22.40;71.90;;;;;;5073309;28;20123;-63
2023/07/30 01:56:18;;;;;;;1.67;1.10;;;22.40;71.90;;;;;;5074250;28;20046;-63
2023/07/30 01:58:43;;;;;;;3.13;1.20;;;22.40;71.90;;;;;;5072579;28;20039;-63
2023/07/30 02:01:09;;;;;;;2.20;1.30;;;22.40;71.80;;;;;;5072004;28;20043;-63
2023/07/30 02:03:34;;;;;;;2.22;1.00;;;22.40;71.80;;;;;;5071586;28;20047;-63
2023/07/30 02:06:00;;;;;;;3.08;1.30;;;22.40;71.80;;;;;;5072261;28;20040;-63
2023/07/30 02:08:26;;;;;;;2.70;1.20;;;22.40;71.80;;;;;;5071870;28;20452;-63
2023/07/30 02:10:58;;;;;;;2.38;1.20;;;22.40;71.80;;;;;;5073698;28;20048;-63
2023/07/30 02:13:24;;;;;;;2.40;1.27;;;22.40;71.70;;;;;;5106508;28;20070;-63
2023/07/30 02:15:50;;;;;;;2.33;1.20;;;22.40;71.70;;;;;;5070861;28;20045;-63
2023/07/30 02:18:18;;;;;;;2.20;1.15;;;22.30;71.70;;;;;;5074159;28;20044;-63
2023/07/30 02:20:44;;;;;;;2.47;1.08;;;22.30;71.70;;;;;;5073256;28;20040;-63
2023/07/30 02:23:09;;;;;;;4.93;1.20;;;22.30;71.70;;;;;;5071583;28;20063;-63
2023/07/30 02:25:35;;;;;;;3.25;1.40;;;22.30;71.70;;;;;;5073592;28;20051;-63
2023/07/30 02:28:03;;;;;;;3.20;1.08;;;22.30;71.70;;;;;;5073787;28;20044;-63
2023/07/30 02:30:32;;;;;;;3.17;1.20;;;22.30;71.60;;;;;;5072619;28;20052;-63
2023/07/30 02:32:57;;;;;;;3.13;1.10;;;22.30;71.60;;;;;;5073283;28;20135;-63
2023/07/30 02:35:23;;;;;;;1.75;0.90;;;22.30;71.60;;;;;;5072805;28;20052;-63
2023/07/30 02:37:48;;;;;;;2.20;1.10;;;22.30;71.60;;;;;;5071758;28;20109;-63
2023/07/30 02:40:14;;;;;;;3.25;1.27;;;22.30;71.60;;;;;;5071949;28;20036;-63
2023/07/30 02:42:42;;;;;;;2.53;1.20;;;22.30;71.60;;;;;;5072366;28;20040;-63
2023/07/30 02:45:08;;;;;;;2.92;1.25;;;22.30;71.60;;;;;;5073292;28;20036;-63
2023/07/30 02:47:37;;;;;;;2.95;1.25;;;22.30;71.60;;;;;;5071459;28;20093;-63
2023/07/30 02:50:04;;;;;;;2.75;1.27;;;22.30;71.60;;;;;;5072621;28;20040;-63
2023/07/30 02:52:29;;;;;;;3.90;1.27;;;22.30;71.60;;;;;;5073208;28;20052;-63
2023/07/30 02:54:55;;;;;;;2.35;1.08;;;22.30;71.60;;;;;;5072606;28;20127;-63
2023/07/30 02:57:20;;;;;;;2.38;1.10;;;22.30;71.60;;;;;;5072454;28;20426;-63
2023/07/30 02:59:46;;;;;;;2.72;1.10;;;22.30;71.60;;;;;;5072462;28;20047;-63
2023/07/30 03:02:12;;;;;;;2.03;1.15;;;22.30;71.60;;;;;;5073069;28;20040;-63
2023/07/30 03:04:37;;;;;;;2.67;1.10;;;22.30;71.60;;;;;;5072036;28;20063;-63
2023/07/30 03:07:03;;;;;;;1.73;0.88;;;22.30;71.60;;;;;;5073051;28;20123;-63
2023/07/30 03:09:28;;;;;;;4.28;1.48;;;22.30;71.60;;;;;;5073120;28;20048;-63
2023/07/30 03:11:57;;;;;;;1.95;1.00;;;22.30;71.60;;;;;;5070512;28;20132;-63
2023/07/30 03:14:26;;;;;;;4.43;1.23;;;22.30;71.60;;;;;;5072693;28;20040;-63
2023/07/30 03:16:51;;;;;;;2.53;1.20;;;22.30;71.50;;;;;;5072578;28;20044;-63
2023/07/30 03:19:17;;;;;;;2.08;1.13;;;22.30;71.50;;;;;;5072281;28;20047;-63
2023/07/30 03:21:43;;;;;;;1.88;1.20;;;22.30;71.60;;;;;;5072502;28;20143;-63
2023/07/30 03:24:08;;;;;;;2.45;1.27;;;22.30;71.60;;;;;;5073167;28;20079;-63
2023/07/30 03:26:34;;;;;;;2.67;1.17;;;22.20;71.50;;;;;;5071527;28;20040;-63
2023/07/30 03:28:59;;;;;;;3.38;1.50;;;22.30;71.50;;;;;;5072768;28;20090;-62
2023/07/30 03:31:25;;;;;;;2.80;1.30;;;22.30;71.50;;;;;;5071466;28;20080;-63
2023/07/30 03:33:50;;;;;;;3.40;1.15;;;22.20;71.40;;;;;;5072468;28;20046;-63
2023/07/30 03:36:16;;;;;;;3.13;1.25;;;22.20;71.40;;;;;;5072767;28;20048;-62
2023/07/30 03:38:42;;;;;;;1.98;0.98;;;22.20;71.40;;;;;;5071571;28;20510;-63
2023/07/30 03:41:08;;;;;;;2.95;1.05;;;22.20;71.40;;;;;;5072793;28;20041;-63
2023/07/30 03:43:34;;;;;;;3.00;1.38;;;22.20;71.40;;;;;;5071156;28;20169;-63
2023/07/30 03:45:59;;;;;;;3.65;1.30;;;22.20;71.40;;;;;;5071704;28;20061;-63
2023/07/30 03:48:25;;;;;;;2.90;1.10;;;22.20;71.40;;;;;;5072628;28;20041;-63
2023/07/30 03:50:51;;;;;;;2.33;1.00;;;22.20;71.40;;;;;;5072112;28;20044;-63
2023/07/30 03:53:17;;;;;;;2.60;1.13;;;22.20;71.40;;;;;;5070488;28;20404;-63
2023/07/30 03:55:42;;;;;;;3.35;1.20;;;22.20;71.40;;;;;;5072007;28;20044;-63
2023/07/30 03:58:08;;;;;;;2.60;1.20;;;22.20;71.30;;;;;;5072423;28;20590;-63
2023/07/30 04:00:33;;;;;;;3.78;1.20;;;22.20;71.40;;;;;;5070659;28;20036;-62
2023/07/30 04:02:59;;;;;;;3.15;1.00;;;22.20;71.30;;;;;;5070854;28;20036;-63
2023/07/30 04:05:25;;;;;;;2.05;1.08;;;22.20;71.30;;;;;;5071592;28;20148;-63
2023/07/30 04:07:50;;;;;;;3.10;1.17;;;22.20;71.30;;;;;;5070791;28;20044;-63
2023/07/30 04:10:16;;;;;;;3.00;1.30;;;22.20;71.30;;;;;;5071234;28;20047;-63
2023/07/30 04:12:41;;;;;;;3.08;1.10;;;22.20;71.30;;;;;;5070958;28;20519;-63
2023/07/30 04:15:07;;;;;;;2.25;1.15;;;22.20;71.30;;;;;;5071494;28;20111;-63
2023/07/30 04:17:37;;;;;;;3.03;1.25;;;22.20;71.30;;;;;;5072432;28;20113;-63
2023/07/30 04:20:04;;;;;;;1.58;1.00;;;22.20;71.30;;;;;;5072556;28;20044;-63
2023/07/30 04:22:33;;;;;;;3.33;1.25;;;22.20;71.30;;;;;;5070457;28;20044;-63
2023/07/30 04:24:58;;;;;;;2.30;1.02;;;22.10;71.20;;;;;;5071909;28;20051;-63
2023/07/30 04:27:24;;;;;;;2.35;1.00;;;22.10;71.20;;;;;;5072068;28;20036;-63
2023/07/30 04:29:49;;;;;;;2.15;1.10;;;22.10;71.20;;;;;;5069497;28;20072;-63
2023/07/30 04:32:15;;;;;;;3.15;1.02;;;22.10;71.20;;;;;;5072167;28;20048;-63
2023/07/30 04:34:40;;;;;;;2.83;1.17;;;22.10;71.20;;;;;;5071488;28;20090;-63
2023/07/30 04:37:06;;;;;;;3.20;1.27;;;22.10;71.20;;;;;;5071582;28;20049;-63
2023/07/30 04:39:35;;;;;;;2.72;1.10;;;22.10;71.20;;;;;;5074651;28;20045;-63
2023/07/30 04:42:00;;;;;;;2.50;1.08;;;22.10;71.20;;;;;;5075060;28;20079;-63
2023/07/30 04:44:26;;;;;;;1.50;0.95;;;22.10;71.20;;;;;;5075560;28;20496;-63
2023/07/30 04:46:51;;;;;;;2.33;0.93;;;22.10;71.20;;;;;;5075454;28;20045;-63
2023/07/30 04:49:17;;;;;;;2.70;1.58;;;22.10;71.20;;;;;;5074824;28;20036;-63
2023/07/30 04:51:42;;;;;;;2.38;1.20;;;22.10;71.20;;;;;;5075085;28;20074;-63
2023/07/30 04:54:08;;;;;;;3.15;1.10;;;22.10;71.10;;;;;;5075561;28;20072;-63
2023/07/30 04:56:34;;;;;;;3.80;1.23;;;22.10;71.10;;;;;;5073048;28;20399;-63
2023/07/30 04:59:00;;;;;;;2.53;1.20;;;22.10;71.20;;;;;;5075420;28;20076;-63
2023/07/30 05:01:25;;;;;;;1.85;1.10;;;22.10;71.10;;;;;;5075387;28;20051;-63
2023/07/30 05:03:51;;;;;;;2.95;1.45;;;22.10;71.10;;;;;;5074446;28;20041;-63
2023/07/30 05:06:17;;;;;;;4.47;1.40;;;22.10;71.70;;;;;;5075357;28;20036;-63
2023/07/30 05:08:42;;;;;;;2.90;1.17;;;22.10;71.10;;;;;;5074882;28;20464;-63
2023/07/30 05:11:08;;;;;;;3.58;1.25;;;22.10;71.10;;;;;;5074449;28;20075;-63
2023/07/30 05:13:36;;;;;;;1.88;1.05;;;22.10;71.10;;;;;;5073677;28;20049;-63
2023/07/30 05:16:02;;;;;;;3.03;1.25;;;22.10;71.10;;;;;;5074979;28;20094;-63
2023/07/30 05:18:28;;;;;;;2.38;1.00;;;22.10;71.10;;;;;;5074263;28;20476;-63
2023/07/30 05:20:54;;;;;;;2.10;1.15;;;22.00;71.10;;;;;;5074616;28;20045;-63
2023/07/30 05:23:20;;;;;;;3.55;1.25;;;22.10;71.10;;;;;;5074891;28;20051;-63
2023/07/30 05:25:45;;;;;;;4.40;1.20;;;22.10;71.10;;;;;;5073742;28;20033;-63
2023/07/30 05:28:11;;;;;;;3.63;1.10;;;22.10;71.10;;;;;;5074914;28;20052;-63
2023/07/30 05:30:37;;;;;;;2.67;1.10;;;22.10;71.10;;;;;;5074162;28;20098;-63
2023/07/30 05:33:02;;;;;;;3.17;1.38;;;22.10;71.10;;;;;;5073870;28;20139;-63
2023/07/30 05:35:28;;;;;;;2.22;1.20;;;22.00;71.00;;;;;;5073347;28;20041;-63
2023/07/30 05:37:53;;;;;;;3.17;1.40;;;22.10;71.10;;;;;;5074490;28;20457;-63
2023/07/30 05:40:19;;;;;;;3.40;1.20;;;22.00;71.00;;;;;;5074027;28;20089;-63
2023/07/30 05:42:45;;;;;;;2.42;1.17;;;22.00;71.00;;;;;;5072780;28;20067;-63
2023/07/30 05:45:10;;;;;;;2.35;1.15;;;22.00;71.00;;;;;;5072484;28;20059;-63
2023/07/30 05:47:36;;;;;;;2.47;1.33;;;22.10;71.00;;;;;;5072998;28;20051;-63
2023/07/30 05:50:02;;;;;;;4.38;1.30;;;22.10;71.10;;;;;;5074565;28;20045;-63
2023/07/30 05:52:28;;;;;;;3.65;1.40;;;22.00;71.00;;;;;;5073510;28;20070;-63
2023/07/30 05:54:53;;;;;;;2.33;1.10;;;22.00;71.00;;;;;;5074126;28;20174;-63
2023/07/30 05:57:19;;;;;;;3.45;1.35;;;22.00;71.00;;;;;;5074288;28;20040;-63
2023/07/30 05:59:44;;;;;;;3.45;1.20;;;22.00;71.00;;;;;;5073146;28;20090;-63
2023/07/30 06:02:10;;;;;;;4.38;1.25;;;22.00;71.00;;;;;;5074224;28;20032;-63
2023/07/30 06:04:36;;;;;;;2.65;1.02;;;22.00;71.00;;;;;;5073859;28;20396;-63
2023/07/30 06:07:02;;;;;;;4.78;1.33;;;22.00;71.00;;;;;;5071983;28;20385;-63
2023/07/30 06:09:28;;;;;;;3.30;1.20;;;22.00;71.00;;;;;;5073922;28;20052;-63
2023/07/30 06:11:56;;;;;;;2.45;1.20;;;22.00;70.90;;;;;;5073307;28;20048;-63
2023/07/30 06:14:21;;;;;;;2.92;1.08;;;22.00;71.00;;;;;;5073211;28;20044;-63
2023/07/30 06:16:47;;;;;;;2.75;1.25;;;22.00;71.00;;;;;;5072506;28;20090;-63
2023/07/30 06:19:12;;;;;;;2.85;1.00;;;22.00;71.00;;;;;;5073619;28;20076;-63
2023/07/30 06:21:38;;;;;;;2.58;1.08;;;22.00;70.90;;;;;;5072672;28;20044;-63
2023/07/30 06:24:04;;;;;;;2.90;1.20;;;22.00;71.00;;;;;;5073851;28;20067;-63
2023/07/30 06:26:32;;;;;;;6.28;1.58;;;22.00;71.00;;;;;;5073503;28;20048;-63
2023/07/30 06:28:58;;;;;;;3.90;1.42;;;22.00;70.90;;;;;;5072726;28;20046;-63
2023/07/30 06:31:24;;;;;;;3.53;1.20;;;22.00;70.90;;;;;;5073132;28;20071;-63
2023/07/30 06:33:49;;;;;;;3.25;1.42;;;22.00;70.90;;;;;;5072090;28;20044;-63
2023/07/30 06:36:15;;;;;;;3.72;1.30;;;22.00;70.90;;;;;;5072648;28;20040;-63
2023/07/30 06:38:43;;;;;;;3.35;1.10;;;22.00;70.90;;;;;;5073101;28;20056;-63
2023/07/30 06:41:09;;;;;;;2.83;1.10;;;22.00;70.90;;;;;;5072080;28;20123;-63
2023/07/30 06:43:34;;;;;;;3.72;1.25;;;22.00;70.90;;;;;;5072194;28;20051;-63
2023/07/30 06:46:00;;;;;;;2.88;1.40;;;22.00;70.90;;;;;;5072078;28;20048;-63
2023/07/30 06:48:25;;;;;;;4.70;1.17;;;22.00;70.90;;;;;;5072639;28;20086;-63
2023/07/30 06:50:51;;;;;;;4.57;1.52;;;22.00;70.80;;;;;;5072744;28;20444;-63
2023/07/30 06:53:17;;;;;;;3.70;1.15;;;22.00;70.90;;;;;;5073262;28;20037;-63
2023/07/30 06:55:45;;;;;;;4.00;1.20;;;22.00;70.90;;;;;;5072130;28;20443;-63
2023/07/30 06:58:11;;;;;;;5.28;1.23;;;22.00;70.90;;;;;;5073208;28;20119;-63
2023/07/30 07:00:37;;;;;;;3.08;1.05;;;22.00;70.80;;;;;;5072469;28;20231;-63
2023/07/30 07:03:02;;;;;;;2.25;1.20;;;22.00;70.90;;;;;;5072515;28;20033;-63
2023/07/30 07:05:28;;;;;;;3.00;1.13;;;22.00;70.80;;;;;;5072023;28;20439;-63
2023/07/30 07:07:54;;;;;;;4.68;1.33;;;22.00;70.90;;;;;;5072550;28;20526;-63
2023/07/30 07:10:20;;;;;;;2.65;1.23;;;22.00;70.90;;;;;;5071028;28;20072;-63
2023/07/30 07:12:45;;;;;;;3.00;1.25;;;22.10;71.10;;;;;;5071269;28;20097;-63
2023/07/30 07:15:11;;;;;;;5.18;1.65;;;22.10;71.10;;;;;;5072983;28;20071;-63
2023/07/30 07:17:36;;;;;;;4.57;1.48;;;22.10;71.20;;;;;;5071834;28;20200;-63
2023/07/30 07:20:04;;;;;;;3.17;1.30;;;22.10;71.20;;;;;;5073034;28;20067;-63
2023/07/30 07:22:30;;;;;;;3.90;1.40;;;22.10;71.30;;;;;;5073019;28;20052;-63
2023/07/30 07:24:55;;;;;;;5.30;1.58;;;22.10;71.30;;;;;;5071742;28;20056;-63
2023/07/30 07:27:23;;;;;;;6.13;1.17;;;22.10;71.30;;;;;;5073050;28;20492;-63
2023/07/30 07:29:50;;;;;;;3.83;1.48;;;22.10;71.30;;;;;;5072055;28;20052;-63
2023/07/30 07:32:16;;;;;;;5.25;1.58;;;22.20;71.20;;;;;;5072054;28;20045;-62
2023/07/30 07:34:46;;;;;;;3.22;1.13;;;22.20;71.10;;;;;;5072645;28;20040;-63
2023/07/30 07:37:14;;;;;;;4.43;1.25;;;22.20;71.10;;;;;;5071303;28;20121;-63
2023/07/30 07:39:43;;;;;;;3.55;1.23;;;22.20;71.10;;;;;;5070249;28;20488;-63
2023/07/30 07:42:09;;;;;;;3.25;1.23;;;22.20;71.00;;;;;;5072731;28;20128;-63
2023/07/30 07:44:35;;;;;;;4.93;1.60;;;22.20;70.90;;;;;;5072194;28;20123;-62
2023/07/30 07:47:00;;;;;;;4.07;1.67;;;22.20;70.90;;;;;;5072517;28;20044;-63
2023/07/30 07:49:26;;;;;;;4.80;1.80;;;22.20;70.80;;;;;;5072522;28;20032;-62
2023/07/30 07:51:51;;;;;;;4.45;1.30;;;22.20;70.90;;;;;;5070090;28;20491;-63
2023/07/30 07:54:17;;;;;;;4.53;1.27;;;22.20;70.80;;;;;;5072509;28;20056;-63
2023/07/30 07:56:42;;;;;;;2.65;1.20;;;22.20;70.80;;;;;;5070901;28;20041;-63
2023/07/30 07:59:08;;;;;;;2.72;1.27;;;22.20;70.70;;;;;;5071727;28;20040;-63
2023/07/30 08:01:33;;;;;;;5.10;1.52;;;22.20;70.70;;;;;;5070681;28;20098;-63
2023/07/30 08:03:59;;;;;;;5.07;1.48;;;22.20;70.70;;;;;;5072573;28;20044;-62
2023/07/30 08:06:25;;;;;;;5.15;1.45;;;22.20;70.70;;;;;;5071672;28;20045;-63
2023/07/30 08:08:50;;;;;;;3.75;1.15;;;22.20;70.70;;;;;;5072230;28;20048;-63
2023/07/30 08:11:16;;;;;;;4.35;1.98;;;22.20;70.70;;;;;;5072222;28;20118;-63
2023/07/30 08:13:41;;;;;;;4.68;1.10;;;22.20;70.80;;;;;;5071751;28;20041;-63
2023/07/30 08:16:07;;;;;;;5.80;1.48;;;22.20;70.90;;;;;;5076039;28;20037;-63
2023/07/30 08:18:32;;;;;;;4.85;1.42;;;22.20;70.90;;;;;;5076294;28;20044;-63
2023/07/30 08:21:00;;;;;;;4.60;1.45;;;22.30;71.00;;;;;;5074806;28;20040;-63
2023/07/30 08:23:25;;;;;;;4.72;1.35;;;22.30;71.00;;;;;;5076235;28;20108;-63
2023/07/30 08:25:51;;;;;;;3.17;1.13;;;22.30;71.00;;;;;;5075843;28;20080;-63
2023/07/30 08:28:16;;;;;;;4.07;1.33;;;22.30;70.90;;;;;;5075052;28;20051;-62
2023/07/30 08:30:42;;;;;;;4.00;1.50;;;22.30;70.80;;;;;;5074062;28;20040;-63
2023/07/30 08:33:07;;;;;;;6.07;1.50;;;22.30;70.80;;;;;;5074599;28;20052;-62
2023/07/30 08:35:33;;;;;;;4.88;1.50;;;22.40;70.90;;;;;;5073838;28;20051;-63
2023/07/30 08:37:59;;;;;;;3.20;1.40;;;22.40;70.80;;;;;;5075685;28;20542;-62
2023/07/30 08:40:24;;;;;;;3.83;1.73;;;22.40;70.80;;;;;;5075704;28;20123;-62
2023/07/30 08:42:51;;;;;;;5.45;1.38;;;22.40;70.80;;;;;;5073391;28;20040;-62
2023/07/30 08:45:17;;;;;;;3.90;1.50;;;22.50;70.90;;;;;;5074236;28;20048;-62
2023/07/30 08:47:43;;;;;;;4.03;1.40;;;22.50;70.80;;;;;;5074360;28;20064;-62
2023/07/30 08:50:12;;;;;;;3.53;1.25;;;22.50;70.80;;;;;;5073748;28;20109;-62
2023/07/30 08:52:37;;;;;;;5.75;1.80;;;22.50;70.70;;;;;;5075310;28;20041;-63
2023/07/30 08:55:04;;;;;;;4.22;1.40;;;22.50;70.70;;;;;;5073384;28;20098;-62
2023/07/30 08:57:29;;;;;;;4.97;1.63;;;22.50;70.70;;;;;;5075370;28;20041;-62
2023/07/30 09:00:05;;;;;;;6.40;1.77;;;22.50;70.60;;;;;;5075169;28;20052;-62
2023/07/30 09:02:42;;;;;;;4.30;1.50;;;22.60;70.60;;;;;;5074494;28;20058;-62
2023/07/30 09:05:07;;;;;;;2.83;1.38;;;22.60;70.70;;;;;;5074463;28;20040;-62
2023/07/30 09:07:33;;;;;;;4.65;1.45;;;22.60;70.60;;;;;;5074243;28;20572;-62
2023/07/30 09:09:59;;;;;;;3.22;1.33;;;22.60;70.50;;;;;;5074498;28;20449;-62
2023/07/30 09:12:31;;;;;;;5.05;1.65;;;22.60;70.50;;;;;;5075065;28;20049;-62
2023/07/30 09:14:57;;;;;;;4.45;1.42;;;22.60;70.50;;;;;;5073352;28;20167;-62
2023/07/30 09:17:23;;;;;;;3.40;1.40;;;22.60;70.50;;;;;;5074161;28;20127;-62
2023/07/30 09:19:52;;;;;;;5.25;1.60;;;22.60;70.50;;;;;;5074877;28;20459;-62
2023/07/30 09:22:27;;;;;;;4.78;1.52;;;22.60;70.50;;;;;;5074987;28;20040;-62
2023/07/30 09:24:56;;;;;;;6.35;1.58;;;22.60;70.40;;;;;;5073534;28;20044;-62
2023/07/30 09:27:26;;;;;;;4.95;1.63;;;22.60;70.50;;;;;;5073326;28;20566;-62
2023/07/30 09:29:58;;;;;;;4.13;1.45;;;22.60;70.50;;;;;;5073217;28;20056;-62
2023/07/30 09:32:28;;;;;;;5.20;1.70;;;22.60;70.40;;;;;;5074221;28;20060;-63
2023/07/30 09:34:54;;;;;;;5.50;1.70;;;22.60;70.40;;;;;;5074706;28;20305;-62
2023/07/30 09:37:23;;;;;;;4.63;1.55;;;22.60;70.30;;;;;;5072601;28;20037;-62
2023/07/30 09:39:48;;;;;;;4.97;1.63;;;22.60;70.30;;;;;;5074362;28;20080;-62
2023/07/30 09:42:14;;;;;;;5.72;1.90;;;22.60;70.20;;;;;;5074675;28;20129;-62
2023/07/30 09:44:43;;;;;;;5.72;1.58;;;22.60;70.20;;;;;;5072355;28;20041;-62
2023/07/30 09:47:09;;;;;;;4.57;1.70;;;22.50;70.20;;;;;;5056692;28;20338;-62
2023/07/30 09:49:36;;;;;;;4.32;1.60;;;22.50;70.20;;;;;;5074155;28;20037;-62
2023/07/30 09:52:03;;;;;;;5.45;1.98;;;22.50;70.20;;;;;;5072998;28;20052;-63
2023/07/30 09:54:28;;;;;;;4.43;1.70;;;22.50;70.20;;;;;;5074598;28;20044;-63
2023/07/30 09:56:54;;;;;;;3.40;1.85;;;22.50;70.30;;;;;;5072582;28;20048;-63
2023/07/30 09:59:20;;;;;;;4.68;1.58;;;22.50;70.30;;;;;;5072584;28;20036;-63
2023/07/30 10:01:53;;;;;;;4.18;1.83;;;22.40;70.20;;;;;;5074006;28;20049;-62
2023/07/30 10:04:20;;;;;;;3.92;1.73;;;22.50;70.90;;;;;;5074367;28;20044;-63
2023/07/30 10:06:53;;;;;;;7.65;1.90;;;22.40;70.20;;;;;;5071857;28;20052;-63
2023/07/30 10:09:20;;;;;;;3.08;1.58;;;22.40;70.20;;;;;;5072719;28;20083;-63
2023/07/30 10:11:45;;;;;;;4.78;2.00;;;22.40;70.20;;;;;;5056234;28;20060;-63
2023/07/30 10:14:11;;;;;;;4.20;1.58;;;22.40;70.30;;;;;;5055291;28;20127;-63
2023/07/30 10:16:37;;;;;;;6.88;2.15;;;22.40;70.30;;;;;;5073716;28;20062;-63
2023/07/30 10:19:02;;;;;;;4.47;1.73;;;22.30;70.20;;;;;;5072794;28;20048;-63
2023/07/30 10:21:31;;;;;;;4.25;1.45;;;22.40;70.20;;;;;;5073080;28;20381;-63
2023/07/30 10:24:02;;;;;;;4.00;1.73;;;22.30;70.20;;;;;;5073555;28;20055;-63
2023/07/30 10:26:32;;;;;;;4.75;2.00;;;22.30;70.20;;;;;;5073054;28;20044;-63
2023/07/30 10:29:17;;;;;;;5.43;1.67;;;22.30;70.10;;;;;;5073543;28;20052;-63
2023/07/30 10:31:55;;;;;;;6.93;2.10;;;22.30;70.00;;;;;;5072891;28;20092;-62
2023/07/30 10:34:21;;;;;;;5.32;2.10;;;22.30;70.10;;;;;;5071378;28;20067;-63
2023/07/30 10:36:49;;;;;;;4.82;2.15;;;22.30;70.10;;;;;;5072628;28;20513;-62
2023/07/30 10:39:21;;;;;;;7.95;2.00;;;22.30;70.20;;;;;;5073292;28;20487;-63
2023/07/30 10:41:51;;;;;;;4.93;2.00;;;22.30;70.20;;;;;;5071156;28;20511;-63
2023/07/30 10:44:33;;;;;;;5.38;1.70;;;22.30;70.20;;;;;;5072236;28;20048;-63
2023/07/30 10:46:59;;;;;;;4.45;1.90;;;22.30;70.10;;;;;;5071795;28;20044;-63
2023/07/30 10:49:25;;;;;;;5.00;1.60;;;22.30;70.20;;;;;;5071458;28;20048;-63
2023/07/30 10:51:52;;;;;;;4.57;1.67;;;22.30;70.20;;;;;;5072931;28;20086;-63
2023/07/30 10:54:18;;;;;;;5.30;1.55;;;22.30;70.20;;;;;;5071897;28;20048;-63
2023/07/30 10:56:44;;;;;;;5.15;1.90;;;22.30;70.10;;;;;;5071363;28;20048;-63
2023/07/30 10:59:10;;;;;;;5.05;1.77;;;22.30;70.10;;;;;;5073314;28;20037;-63
2023/07/30 11:01:42;;;;;;;4.85;1.70;;;22.30;70.00;;;;;;5070925;28;20105;-62
2023/07/30 11:04:09;;;;;;;3.55;1.70;;;22.20;69.90;;;;;;5073288;28;20071;-62
2023/07/30 11:06:35;;;;;;;5.82;1.67;;;22.20;70.00;;;;;;5072891;28;20051;-63
2023/07/30 11:09:00;;;;;;;3.47;1.70;;;22.20;70.00;;;;;;5070912;28;20036;-63
2023/07/30 11:11:26;;;;;;;5.30;1.90;;;22.20;69.90;;;;;;5073041;28;20069;-62
2023/07/30 11:13:52;;;;;;;4.82;1.52;;;22.20;69.90;;;;;;5104898;28;20045;-63
2023/07/30 11:16:17;;;;;;;4.68;1.80;;;22.20;70.00;;;;;;5071991;28;20048;-63
2023/07/30 11:18:43;;;;;;;4.95;1.65;;;22.20;70.10;;;;;;5072521;28;20388;-62
2023/07/30 11:21:10;;;;;;;5.38;1.75;;;22.20;70.10;;;;;;5071863;28;20480;-62
2023/07/30 11:23:37;;;;;;;3.90;1.70;;;22.30;70.20;;;;;;5071975;28;20356;-63
2023/07/30 11:26:04;;;;;;;4.47;1.50;;;22.30;70.30;;;;;;5071784;28;20044;-62
2023/07/30 11:28:30;;;;;;;3.72;1.75;;;22.30;70.40;;;;;;5072627;28;20044;-62
2023/07/30 11:31:02;;;;;;;4.40;1.52;;;22.30;70.40;;;;;;5071262;28;20106;-63
2023/07/30 11:33:28;;;;;;;5.03;1.50;;;22.30;70.30;;;;;;5071718;28;20484;-63
2023/07/30 11:35:57;;;;;;;2.63;1.25;;;22.30;70.30;;;;;;5071349;28;20054;-62
2023/07/30 11:38:26;;;;;;;5.95;1.85;;;22.30;70.30;;;;;;5070774;28;20083;-62
2023/07/30 11:40:52;;;;;;;2.63;1.25;;;22.40;70.30;;;;;;5054361;28;20068;-62
2023/07/30 11:43:18;;;;;;;4.78;1.60;;;22.40;70.30;;;;;;5071624;28;20040;-63
2023/07/30 11:45:44;;;;;;;4.75;1.80;;;22.30;70.20;;;;;;5070381;28;20508;-62
2023/07/30 11:48:10;;;;;;;4.50;1.38;;;22.40;70.20;;;;;;5073754;28;20079;-63
2023/07/30 11:50:46;;;;;;;4.30;1.75;;;22.40;70.20;;;;;;5076048;28;20048;-62
2023/07/30 11:53:11;;;;;;;6.00;1.50;;;22.40;70.20;;;;;;5076526;28;20499;-63
2023/07/30 11:55:38;;;;;;;5.57;1.63;;;22.40;70.10;;;;;;5076423;28;20036;-63
2023/07/30 11:58:04;;;;;;;4.47;1.42;;;22.40;70.10;;;;;;5075703;28;20522;-63
2023/07/30 12:00:31;;;;;;;4.20;1.50;;;22.40;70.10;;;;;;5077141;28;20040;-63
2023/07/30 12:03:02;;;;;;;2.90;1.40;;;22.40;70.10;;;;;;5074443;28;20478;-63
2023/07/30 12:05:38;;;;;;;4.88;1.50;;;22.40;70.00;;;;;;5074871;28;20373;-63
2023/07/30 12:08:06;;;;;;;3.25;1.60;;;22.50;69.90;;;;;;5076473;28;20044;-62
2023/07/30 12:10:45;;;;;;;3.92;1.40;;;22.50;69.90;;;;;;5074881;28;20051;-63
2023/07/30 12:13:18;;;;;;;3.17;1.42;;;22.50;69.90;;;;;;5075800;28;20412;-62
2023/07/30 12:15:55;;;;;;;4.47;1.40;;;22.50;69.90;;;;;;5075957;28;20392;-62
2023/07/30 12:18:23;;;;;;;3.60;1.20;;;22.50;69.80;;;;;;5076251;28;20040;-62
2023/07/30 12:20:50;;;;;;;3.38;1.42;;;22.50;69.70;;;;;;5075243;28;20053;-62
2023/07/30 12:23:16;;;;;;;4.30;1.60;;;22.50;69.60;;;;;;5076277;28;20578;-62
2023/07/30 12:25:41;;;;;;;4.20;1.10;;;22.50;69.40;;;;;;5074397;28;20132;-63
2023/07/30 12:28:07;;;;;;;3.05;1.08;;;22.60;69.30;;;;;;5075227;28;20047;-62
2023/07/30 12:30:33;;;;;;;2.70;1.02;;;22.60;69.10;;;;;;5075688;28;20114;-62
2023/07/30 12:32:58;;;;;;;4.07;1.50;;;22.60;69.00;;;;;;5074685;28;20063;-69
2023/07/30 12:35:24;;;;;;;4.53;1.30;;;22.60;69.00;;;;;;5066777;28;20441;-62
2023/07/30 12:37:50;;;;;;;3.40;1.23;;;22.70;68.90;;;;;;5053392;28;20397;-62
2023/07/30 12:40:16;;;;;;;5.45;1.35;;;22.60;68.70;;;;;;5052516;28;20663;-62
2023/07/30 12:42:41;;;;;;;5.15;1.25;;;22.70;68.60;;;;;;5066738;28;20055;-64
2023/07/30 12:45:07;;;;;;;4.65;1.30;;;22.60;68.20;;;;;;5073179;28;20036;-62